Time;durP1;ratioP1;P1;durP2;ratioP2;P2;SDS_P1;SDS_P2;PMS_P1;PMS_P2;Temp;Humidity;BMP_temperature;BMP_pressure;BME280_temperature;BME280_humidity;BME280_pressure;Samples;Min_cycle;Max_cycle;Signal;HPM_P1;HPM_P2
2023/09/04 00:02:24;;;;;;;12.60;11.30;;;18.90;61.40;;;;;;5015292;28;20328;-79
2023/09/04 00:04:52;;;;;;;13.67;11.20;;;18.90;62.40;;;;;;5016760;28;20181;-80
2023/09/04 00:07:19;;;;;;;12.70;11.40;;;19.00;57.10;;;;;;5017917;28;20263;-82
2023/09/04 00:09:46;;;;;;;16.43;11.57;;;18.90;58.50;;;;;;5016641;28;20172;-80
2023/09/04 00:12:11;;;;;;;12.83;11.57;;;18.90;59.60;;;;;;5017673;28;20583;-80
2023/09/04 00:14:37;;;;;;;13.47;11.57;;;18.90;58.50;;;;;;5017341;28;20182;-79
2023/09/04 00:17:03;;;;;;;13.10;11.60;;;19.00;58.00;;;;;;5021691;28;20180;-79
2023/09/04 00:19:32;;;;;;;12.83;11.53;;;19.00;56.70;;;;;;5030347;28;20228;-77
2023/09/04 00:21:58;;;;;;;14.30;12.33;;;18.90;57.90;;;;;;5031755;28;20203;-77
2023/09/04 00:24:27;;;;;;;14.07;11.27;;;18.80;59.30;;;;;;5031683;28;20152;-79
2023/09/04 00:26:53;;;;;;;12.93;11.70;;;18.80;61.50;;;;;;5029450;28;20183;-78
2023/09/04 00:29:19;;;;;;;13.00;11.70;;;18.80;59.80;;;;;;5027382;28;20198;-83
2023/09/04 00:31:44;;;;;;;14.80;12.53;;;18.80;60.00;;;;;;5019672;28;20519;-80
2023/09/04 00:34:10;;;;;;;12.53;11.27;;;18.80;61.70;;;;;;5019248;28;20658;-78
2023/09/04 00:36:35;;;;;;;13.47;12.10;;;18.80;63.20;;;;;;5025926;28;20175;-79
2023/09/04 00:39:02;;;;;;;12.70;11.40;;;18.70;61.00;;;;;;5024091;28;20181;-77
2023/09/04 00:41:28;;;;;;;13.57;12.23;;;18.60;66.60;;;;;;5021839;28;20326;-78
2023/09/04 00:43:53;;;;;;;14.37;12.03;;;18.50;73.80;;;;;;5024093;28;20194;-78
2023/09/04 00:46:20;;;;;;;13.90;12.33;;;18.50;74.20;;;;;;5025790;28;20254;-78
2023/09/04 00:48:47;;;;;;;13.63;12.23;;;18.40;75.00;;;;;;5027066;28;20631;-77
2023/09/04 00:51:13;;;;;;;13.40;12.00;;;18.30;76.30;;;;;;5030079;28;20164;-77
2023/09/04 00:53:39;;;;;;;13.63;12.23;;;18.30;76.90;;;;;;5027927;28;20244;-78
2023/09/04 00:56:07;;;;;;;13.70;12.30;;;18.30;77.50;;;;;;5032533;28;20694;-80
2023/09/04 00:58:34;;;;;;;14.57;12.43;;;18.40;76.80;;;;;;5033902;28;20177;-82
2023/09/04 01:01:01;;;;;;;13.97;12.67;;;18.40;74.80;;;;;;5031881;28;20180;-79
2023/09/04 01:03:29;;;;;;;15.47;12.10;;;18.40;74.50;;;;;;5028439;28;20202;-79
2023/09/04 01:05:55;;;;;;;15.57;12.33;;;18.30;77.00;;;;;;5029418;28;20185;-80
2023/09/04 01:08:20;;;;;;;14.70;12.37;;;18.20;80.30;;;;;;5025699;28;20336;-80
2023/09/04 01:11:10;;;;;;;12.63;11.43;;;18.10;83.90;;;;;;5023450;28;20194;-78
2023/09/04 01:13:39;;;;;;;13.87;12.43;;;18.10;87.40;;;;;;5020261;28;20178;-77
2023/09/04 01:16:06;;;;;;;13.10;11.80;;;18.20;85.00;;;;;;5015702;28;20625;-81
2023/09/04 01:18:34;;;;;;;14.53;13.03;;;18.20;82.00;;;;;;5017554;28;20166;-82
2023/09/04 01:21:04;;;;;;;14.30;12.80;;;18.20;81.00;;;;;;5015640;28;20185;-81
2023/09/04 01:23:30;;;;;;;13.67;12.27;;;18.20;80.80;;;;;;5016044;28;20184;-79
2023/09/04 01:26:30;;;;;;;13.80;12.27;;;18.20;81.60;;;;;;5016016;28;20197;-80
2023/09/04 01:29:02;;;;;;;14.03;12.63;;;18.30;79.30;;;;;;5020192;28;20180;-80
2023/09/04 01:32:06;;;;;;;13.87;12.43;;;18.10;81.60;;;;;;5015706;28;20250;-77
2023/09/04 01:34:36;;;;;;;12.90;11.70;;;18.10;80.60;;;;;;5014267;28;20189;-80
2023/09/04 01:37:03;;;;;;;13.10;11.80;;;18.10;83.10;;;;;;5019026;28;20234;-79
2023/09/04 01:39:30;;;;;;;15.57;12.73;;;18.10;80.90;;;;;;5026707;28;20526;-79
2023/09/04 01:41:56;;;;;;;14.97;13.43;;;18.00;84.30;;;;;;5020014;28;20222;-81
2023/09/04 01:44:22;;;;;;;14.00;12.70;;;18.00;86.30;;;;;;5015871;28;20228;-81
2023/09/04 01:46:48;;;;;;;15.90;12.40;;;18.10;83.70;;;;;;5015478;28;20200;-80
2023/09/04 01:49:13;;;;;;;14.03;12.53;;;18.00;82.90;;;;;;5015388;28;20178;-82
2023/09/04 01:51:39;;;;;;;16.10;12.67;;;18.00;83.80;;;;;;5014568;28;20177;-82
2023/09/04 01:54:05;;;;;;;14.07;12.67;;;18.00;83.60;;;;;;5013105;28;20170;-83
2023/09/04 01:56:31;;;;;;;14.63;12.90;;;17.90;87.10;;;;;;5013513;28;20213;-80
2023/09/04 01:58:57;;;;;;;14.50;13.00;;;17.90;87.70;;;;;;5015296;28;20249;-82
2023/09/04 02:01:23;;;;;;;17.40;13.03;;;17.80;89.90;;;;;;5014773;28;20253;-79
2023/09/04 02:03:57;;;;;;;16.93;13.70;;;17.60;91.30;;;;;;5013780;28;20271;-79
2023/09/04 02:06:26;;;;;;;16.47;12.37;;;17.60;93.40;;;;;;5014985;28;20158;-81
2023/09/04 02:08:52;;;;;;;16.77;13.50;;;17.50;94.50;;;;;;5014666;28;20174;-80
2023/09/04 02:11:19;;;;;;;15.93;13.80;;;17.40;96.30;;;;;;5014239;28;20185;-80
2023/09/04 02:13:49;;;;;;;16.63;13.07;;;17.60;94.60;;;;;;5013689;28;20191;-81
2023/09/04 02:16:15;;;;;;;15.30;13.70;;;17.50;94.50;;;;;;5012660;28;20179;-79
2023/09/04 02:18:41;;;;;;;17.07;14.03;;;17.40;95.10;;;;;;5014584;28;20224;-78
2023/09/04 02:21:07;;;;;;;15.60;13.83;;;17.40;96.10;;;;;;5014249;28;20222;-79
2023/09/04 02:23:33;;;;;;;15.70;14.23;;;17.40;95.00;;;;;;5014352;28;20644;-80
2023/09/04 02:25:59;;;;;;;16.77;15.07;;;17.40;94.10;;;;;;5014180;28;20222;-81
2023/09/04 02:28:24;;;;;;;16.40;13.93;;;17.30;95.60;;;;;;5013956;28;20178;-80
2023/09/04 02:30:51;;;;;;;15.80;14.30;;;17.20;96.80;;;;;;5014333;28;20172;-79
2023/09/04 02:33:16;;;;;;;16.27;14.57;;;17.20;97.60;;;;;;5013672;28;20169;-81
2023/09/04 02:35:42;;;;;;;21.63;16.90;;;17.10;98.10;;;;;;5013454;28;20184;-79
2023/09/04 02:38:08;;;;;;;16.70;15.00;;;17.30;98.20;;;;;;5013635;28;20246;-78
2023/09/04 02:40:34;;;;;;;16.80;14.97;;;17.30;95.40;;;;;;5013565;28;20170;-82
2023/09/04 02:43:02;;;;;;;16.40;14.80;;;17.40;94.30;;;;;;5013259;28;20265;-82
2023/09/04 02:45:27;;;;;;;15.87;14.37;;;17.50;92.10;;;;;;4996499;28;20202;-79
2023/09/04 02:47:53;;;;;;;16.63;15.03;;;17.40;91.60;;;;;;5012698;28;20210;-80
2023/09/04 02:50:19;;;;;;;16.40;14.60;;;17.40;93.00;;;;;;5014232;28;20630;-82
2023/09/04 02:52:44;;;;;;;17.57;15.77;;;17.40;92.10;;;;;;5014370;28;20181;-82
2023/09/04 02:55:11;;;;;;;17.00;15.23;;;17.50;91.40;;;;;;5014562;28;20178;-82
2023/09/04 02:57:37;;;;;;;17.00;15.37;;;17.50;89.70;;;;;;5014028;28;20202;-80
2023/09/04 03:00:06;;;;;;;17.00;15.40;;;17.60;87.40;;;;;;5014413;28;20178;-81
2023/09/04 03:02:34;;;;;;;17.83;16.03;;;17.60;83.70;;;;;;5013835;28;20202;-79
2023/09/04 03:05:00;;;;;;;16.43;14.60;;;17.60;79.50;;;;;;5012562;28;20163;-81
2023/09/04 03:07:27;;;;;;;17.30;15.37;;;17.60;79.00;;;;;;5014718;28;20209;-82
2023/09/04 03:09:57;;;;;;;17.10;15.40;;;17.60;78.60;;;;;;5017777;28;20165;-83
2023/09/04 03:12:27;;;;;;;17.93;15.83;;;17.50;80.70;;;;;;5015869;28;20228;-83
2023/09/04 03:14:57;;;;;;;17.97;16.07;;;17.50;80.60;;;;;;5017745;28;20212;-82
2023/09/04 03:17:24;;;;;;;17.43;15.63;;;17.50;85.00;;;;;;5016468;28;20175;-80
2023/09/04 03:19:53;;;;;;;18.80;16.83;;;17.30;89.60;;;;;;5016392;28;20189;-83
2023/09/04 03:22:20;;;;;;;17.60;15.10;;;17.30;91.50;;;;;;5017555;28;20205;-80
2023/09/04 03:24:46;;;;;;;16.97;15.27;;;17.00;92.70;;;;;;5017548;28;20171;-83
2023/09/04 03:27:12;;;;;;;18.77;15.60;;;17.10;94.10;;;;;;5016657;28;20202;-80
2023/09/04 03:29:37;;;;;;;17.57;15.00;;;17.10;94.70;;;;;;5017042;28;20194;-79
2023/09/04 03:32:04;;;;;;;17.13;15.40;;;17.00;94.50;;;;;;5015199;28;20176;-79
2023/09/04 03:34:30;;;;;;;18.10;16.27;;;16.90;95.80;;;;;;5014620;28;20178;-80
2023/09/04 03:36:55;;;;;;;18.67;16.80;;;16.80;97.80;;;;;;5016441;28;20246;-79
2023/09/04 03:39:21;;;;;;;19.60;16.40;;;16.80;98.80;;;;;;5015771;28;20236;-78
2023/09/04 03:41:47;;;;;;;19.40;17.13;;;16.80;99.40;;;;;;5015461;28;20210;-80
2023/09/04 03:44:14;;;;;;;19.43;17.43;;;16.70;99.90;;;;;;5017190;28;20172;-78
2023/09/04 03:46:40;;;;;;;18.07;16.17;;;16.60;99.90;;;;;;5016146;28;20638;-79
2023/09/04 03:49:07;;;;;;;20.20;16.93;;;16.60;99.90;;;;;;5016469;28;20721;-79
2023/09/04 03:51:34;;;;;;;22.27;18.20;;;16.70;99.90;;;;;;5017344;28;20166;-80
2023/09/04 03:54:03;;;;;;;18.23;16.13;;;16.80;99.90;;;;;;5015998;28;20166;-79
2023/09/04 03:56:29;;;;;;;20.30;16.43;;;16.80;99.30;;;;;;5014700;28;20210;-79
2023/09/04 03:58:56;;;;;;;19.20;17.20;;;16.80;98.10;;;;;;5016922;28;20164;-80
2023/09/04 04:01:22;;;;;;;19.10;17.10;;;16.80;96.90;;;;;;5016863;28;20187;-78
2023/09/04 04:03:48;;;;;;;19.70;17.37;;;16.70;96.30;;;;;;5016976;28;20209;-78
2023/09/04 04:06:15;;;;;;;22.60;17.30;;;16.60;97.10;;;;;;5017525;28;20636;-79
2023/09/04 04:08:41;;;;;;;19.67;17.67;;;16.60;98.20;;;;;;5017345;28;20217;-80
2023/09/04 04:11:07;;;;;;;20.80;18.10;;;16.60;99.70;;;;;;5017179;28;20167;-79
2023/09/04 04:13:33;;;;;;;21.60;17.87;;;16.60;98.70;;;;;;5015192;28;20181;-79
2023/09/04 04:15:59;;;;;;;23.60;18.27;;;16.60;98.30;;;;;;5016467;28;20168;-79
2023/09/04 04:18:30;;;;;;;20.10;18.10;;;16.60;99.90;;;;;;5015910;28;20173;-79
2023/09/04 04:20:56;;;;;;;22.37;19.97;;;16.70;99.90;;;;;;5015068;28;20176;-78
2023/09/04 04:23:28;;;;;;;20.50;18.27;;;16.80;99.90;;;;;;5016760;28;20295;-79
2023/09/04 04:25:54;;;;;;;20.33;17.93;;;16.70;99.90;;;;;;5025539;28;20186;-80
2023/09/04 04:28:21;;;;;;;20.83;17.70;;;16.60;99.90;;;;;;5018835;28;20534;-79
2023/09/04 04:30:47;;;;;;;21.23;18.43;;;16.50;99.90;;;;;;5021351;28;20191;-79
2023/09/04 04:33:13;;;;;;;25.60;19.47;;;16.60;99.90;;;;;;5016765;28;20171;-78
2023/09/04 04:35:39;;;;;;;21.90;19.67;;;16.50;99.90;;;;;;5015718;28;20166;-80
2023/09/04 04:38:06;;;;;;;21.53;18.93;;;16.50;99.90;;;;;;5021799;28;20542;-79
2023/09/04 04:40:33;;;;;;;26.03;19.87;;;16.40;99.90;;;;;;5020894;28;20167;-83
2023/09/04 04:42:59;;;;;;;23.93;20.30;;;16.40;99.90;;;;;;5031144;28;20218;-79
2023/09/04 04:45:25;;;;;;;21.93;19.50;;;16.40;99.90;;;;;;5017711;28;20232;-79
2023/09/04 04:47:50;;;;;;;21.93;18.83;;;16.40;99.90;;;;;;5020327;28;20178;-78
2023/09/04 04:50:16;;;;;;;23.77;19.17;;;16.30;99.90;;;;;;5023618;28;20159;-81
2023/09/04 04:52:42;;;;;;;21.60;19.30;;;16.30;99.90;;;;;;5038926;28;20163;-78
2023/09/04 04:55:11;;;;;;;22.53;20.23;;;16.40;99.90;;;;;;5039409;28;20178;-78
2023/09/04 04:57:37;;;;;;;23.63;21.13;;;16.40;99.90;;;;;;5034163;28;20529;-79
2023/09/04 05:00:06;;;;;;;23.50;20.13;;;16.40;99.90;;;;;;5038128;28;20150;-80
2023/09/04 05:02:36;;;;;;;23.53;19.80;;;16.40;99.90;;;;;;5038460;28;20234;-80
2023/09/04 05:05:02;;;;;;;23.40;19.83;;;16.40;99.90;;;;;;5038542;28;20175;-82
2023/09/04 05:07:31;;;;;;;21.43;18.43;;;16.40;99.90;;;;;;5037560;28;20201;-78
2023/09/04 05:09:58;;;;;;;24.43;18.90;;;16.40;99.90;;;;;;5036365;28;20183;-80
2023/09/04 05:12:24;;;;;;;24.77;18.90;;;16.40;99.90;;;;;;5039198;28;20174;-81
2023/09/04 05:14:50;;;;;;;21.03;18.83;;;16.30;99.90;;;;;;5037849;28;20170;-82
2023/09/04 05:17:16;;;;;;;21.07;18.70;;;16.30;99.90;;;;;;5036695;28;20186;-78
2023/09/04 05:19:41;;;;;;;22.70;18.73;;;16.40;99.90;;;;;;5031386;28;20494;-82
2023/09/04 05:22:09;;;;;;;21.03;18.73;;;16.30;99.90;;;;;;5023355;28;20202;-79
2023/09/04 05:24:40;;;;;;;21.90;19.30;;;16.30;99.90;;;;;;5024028;28;20205;-79
2023/09/04 05:27:07;;;;;;;22.77;18.70;;;16.20;99.90;;;;;;5030346;28;20225;-78
2023/09/04 05:29:33;;;;;;;20.50;18.40;;;16.10;99.90;;;;;;5026268;28;20174;-78
2023/09/04 05:32:26;;;;;;;21.03;18.80;;;16.20;99.90;;;;;;5020571;28;20180;-79
2023/09/04 05:35:04;;;;;;;22.73;19.40;;;16.30;99.90;;;;;;5021051;28;20163;-80
2023/09/04 05:37:36;;;;;;;22.83;18.93;;;16.30;99.90;;;;;;5020230;28;20261;-79
2023/09/04 05:40:02;;;;;;;24.50;18.90;;;16.30;99.90;;;;;;5015477;28;20166;-80
2023/09/04 05:42:43;;;;;;;23.43;20.73;;;16.30;99.90;;;;;;5017622;28;20198;-81
2023/09/04 05:45:21;;;;;;;25.43;19.63;;;16.30;99.90;;;;;;5019301;28;20163;-81
2023/09/04 05:47:49;;;;;;;24.43;19.63;;;16.40;99.90;;;;;;5024705;28;20163;-79
2023/09/04 05:50:15;;;;;;;22.73;19.10;;;16.40;99.90;;;;;;5016770;28;20248;-79
2023/09/04 05:52:54;;;;;;;26.80;19.70;;;16.40;99.90;;;;;;5017410;28;20174;-80
2023/09/04 05:55:20;;;;;;;24.80;19.20;;;16.50;99.90;;;;;;5019569;28;20192;-78
2023/09/04 05:57:45;;;;;;;21.47;19.23;;;16.50;99.90;;;;;;5034202;28;20194;-79
2023/09/04 06:00:17;;;;;;;25.20;19.90;;;16.60;99.90;;;;;;5033640;28;20197;-79
2023/09/04 06:02:59;;;;;;;24.17;20.20;;;16.60;99.90;;;;;;5033970;28;20201;-80
2023/09/04 06:05:34;;;;;;;29.87;18.93;;;16.60;99.90;;;;;;5030253;28;20150;-84
2023/09/04 06:08:42;;;;;;;31.20;19.93;;;16.60;99.90;;;;;;5036691;28;20177;-81
2023/09/04 06:11:12;;;;;;;31.77;19.40;;;16.60;99.90;;;;;;5019037;28;20531;-86
2023/09/04 06:13:37;;;;;;;29.47;21.27;;;16.60;99.90;;;;;;5013406;28;20201;-81
2023/09/04 06:16:14;;;;;;;28.63;20.80;;;16.80;99.90;;;;;;5016112;28;20162;-82
2023/09/04 06:18:39;;;;;;;29.57;20.90;;;16.80;99.90;;;;;;5014667;28;20177;-82
2023/09/04 06:21:06;;;;;;;30.40;19.57;;;16.80;99.90;;;;;;5014564;28;20535;-81
2023/09/04 06:23:32;;;;;;;29.93;20.43;;;16.80;99.90;;;;;;5015957;28;20214;-82
2023/09/04 06:26:01;;;;;;;27.23;20.13;;;16.80;99.90;;;;;;5017897;28;20176;-83
2023/09/04 06:28:27;;;;;;;25.77;19.10;;;16.90;99.90;;;;;;5013987;28;20215;-84
2023/09/04 06:30:54;;;;;;;24.70;18.83;;;17.00;99.90;;;;;;5016503;28;20167;-83
2023/09/04 06:33:20;;;;;;;21.07;17.97;;;17.10;99.90;;;;;;5016746;28;20156;-82
2023/09/04 06:35:45;;;;;;;20.77;17.23;;;17.20;99.90;;;;;;5015229;28;20175;-83
2023/09/04 06:38:14;;;;;;;21.00;17.50;;;17.30;99.90;;;;;;5017241;28;20170;-83
2023/09/04 06:40:58;;;;;;;19.97;17.87;;;17.30;99.90;;;;;;5022602;28;20672;-82
2023/09/04 06:43:30;;;;;;;23.10;17.83;;;17.40;99.90;;;;;;5022578;28;20202;-83
2023/09/04 06:45:58;;;;;;;22.93;19.07;;;17.40;99.90;;;;;;5013742;28;20258;-83
2023/09/04 06:48:24;;;;;;;20.73;17.20;;;17.50;99.90;;;;;;5014050;28;20182;-80
2023/09/04 06:50:53;;;;;;;19.27;15.93;;;17.60;99.90;;;;;;5015875;28;20533;-81
2023/09/04 06:53:18;;;;;;;24.20;17.30;;;17.80;99.90;;;;;;5015890;28;20178;-83
2023/09/04 06:55:47;;;;;;;17.73;15.90;;;17.80;99.90;;;;;;5017042;28;20202;-82
2023/09/04 06:58:13;;;;;;;21.33;16.53;;;17.80;99.90;;;;;;5014415;28;20171;-82
2023/09/04 07:00:39;;;;;;;17.23;15.43;;;17.90;99.90;;;;;;5015156;28;20251;-80
2023/09/04 07:03:06;;;;;;;21.83;15.57;;;17.90;99.90;;;;;;5016429;28;20217;-80
2023/09/04 07:05:32;;;;;;;21.40;15.60;;;18.00;99.90;;;;;;5015333;28;20190;-82
2023/09/04 07:07:58;;;;;;;18.50;15.47;;;18.10;99.90;;;;;;5019145;28;20205;-81
2023/09/04 07:10:24;;;;;;;20.60;15.50;;;18.30;99.90;;;;;;5016681;28;20525;-82
2023/09/04 07:12:53;;;;;;;18.73;15.03;;;18.40;99.90;;;;;;5016542;28;20171;-84
2023/09/04 07:15:18;;;;;;;21.23;15.33;;;18.50;99.90;;;;;;5019282;28;20180;-82
2023/09/04 07:17:45;;;;;;;19.10;14.93;;;18.60;99.90;;;;;;5019452;28;20185;-81
2023/09/04 07:20:11;;;;;;;20.60;14.50;;;18.70;99.90;;;;;;5013582;28;20178;-80
2023/09/04 07:22:37;;;;;;;19.33;14.00;;;18.80;99.90;;;;;;5013897;28;20215;-81
2023/09/04 07:25:04;;;;;;;17.40;14.33;;;18.90;99.90;;;;;;5015659;28;20577;-80
2023/09/04 07:27:30;;;;;;;14.23;12.60;;;18.90;99.90;;;;;;5017021;28;20182;-80
2023/09/04 07:29:55;;;;;;;14.03;12.30;;;19.00;99.90;;;;;;5031389;28;20324;-80
2023/09/04 07:32:21;;;;;;;16.73;12.83;;;19.10;99.90;;;;;;5024253;28;20183;-80
2023/09/04 07:34:47;;;;;;;15.40;12.27;;;19.20;99.90;;;;;;5035577;28;20166;-81
2023/09/04 07:37:13;;;;;;;14.90;11.77;;;19.20;99.90;;;;;;5036518;28;20224;-81
2023/09/04 07:39:39;;;;;;;13.37;10.70;;;19.20;99.90;;;;;;5036783;28;20201;-81
2023/09/04 07:42:05;;;;;;;11.90;9.40;;;19.20;99.90;;;;;;5036067;28;20230;-81
2023/09/04 07:44:31;;;;;;;11.77;9.10;;;19.40;99.90;;;;;;5036333;28;20171;-80
2023/09/04 07:46:58;;;;;;;14.30;9.10;;;19.50;99.90;;;;;;5021449;28;20195;-82
2023/09/04 07:49:24;;;;;;;10.43;8.57;;;19.60;99.90;;;;;;5021825;28;20230;-80
2023/09/04 07:51:53;;;;;;;10.90;7.60;;;19.70;99.90;;;;;;5026485;28;20219;-82
2023/09/04 07:54:25;;;;;;;8.20;7.17;;;19.90;99.90;;;;;;5025846;28;20205;-79
2023/09/04 07:56:53;;;;;;;10.30;7.47;;;20.00;99.90;;;;;;5020625;28;20243;-82
2023/09/04 07:59:25;;;;;;;11.70;7.27;;;20.00;99.90;;;;;;5020788;28;20241;-80
2023/09/04 08:01:51;;;;;;;8.83;6.73;;;20.00;99.90;;;;;;5019869;28;20213;-79
2023/09/04 08:04:17;;;;;;;8.63;7.13;;;20.10;99.90;;;;;;5017631;28;20696;-81
2023/09/04 08:06:44;;;;;;;9.03;7.50;;;20.20;99.90;;;;;;5017013;28;20188;-80
2023/09/04 08:09:13;;;;;;;9.73;7.93;;;20.20;99.90;;;;;;5018589;28;20155;-81
2023/09/04 08:11:42;;;;;;;10.77;8.17;;;20.30;99.90;;;;;;5018962;28;20154;-80
2023/09/04 08:14:07;;;;;;;9.43;7.27;;;20.40;99.90;;;;;;5019612;28;20232;-82
2023/09/04 08:16:36;;;;;;;9.23;6.80;;;20.40;99.90;;;;;;5017565;28;20343;-82
2023/09/04 08:19:02;;;;;;;7.87;6.07;;;20.60;99.90;;;;;;5016258;28;20221;-82
2023/09/04 08:21:28;;;;;;;8.47;5.93;;;20.60;99.90;;;;;;5016447;28;20232;-81
2023/09/04 08:23:55;;;;;;;7.30;5.77;;;20.80;99.90;;;;;;5017111;28;20184;-80
2023/09/04 08:26:20;;;;;;;7.43;5.60;;;21.00;99.90;;;;;;5018112;28;20182;-83
2023/09/04 08:28:46;;;;;;;7.67;5.20;;;21.10;99.90;;;;;;5017771;28;20178;-81
2023/09/04 08:31:12;;;;;;;8.30;5.53;;;21.10;99.90;;;;;;5015333;28;20651;-82
2023/09/04 08:33:38;;;;;;;8.50;4.80;;;21.10;99.90;;;;;;5017166;28;20713;-82
2023/09/04 08:36:04;;;;;;;6.73;5.40;;;21.10;99.90;;;;;;5018012;28;20183;-81
2023/09/04 08:38:30;;;;;;;5.30;4.70;;;21.30;99.90;;;;;;5018867;28;20170;-81
2023/09/04 08:41:00;;;;;;;5.50;4.60;;;21.60;99.90;;;;;;5018776;28;20175;-81
2023/09/04 08:43:30;;;;;;;5.40;4.60;;;21.60;99.90;;;;;;5017954;28;20214;-81
2023/09/04 08:46:00;;;;;;;5.17;4.20;;;21.50;99.90;;;;;;5016712;28;20179;-82
2023/09/04 08:48:29;;;;;;;6.13;4.77;;;21.50;99.90;;;;;;5016055;28;20186;-80
2023/09/04 08:50:56;;;;;;;9.80;5.40;;;21.50;99.90;;;;;;5015771;28;20688;-81
2023/09/04 08:53:22;;;;;;;5.23;4.43;;;21.80;99.90;;;;;;5017364;28;20177;-81
2023/09/04 08:55:49;;;;;;;5.73;4.23;;;21.80;99.90;;;;;;5017147;28;20301;-80
2023/09/04 08:58:16;;;;;;;6.33;4.20;;;22.00;99.90;;;;;;5015987;28;20177;-81
2023/09/04 09:00:44;;;;;;;6.93;4.40;;;22.00;99.90;;;;;;5024813;28;20630;-82
2023/09/04 09:03:11;;;;;;;7.00;4.20;;;22.00;99.90;;;;;;5030551;28;20224;-81
2023/09/04 09:05:37;;;;;;;7.40;4.20;;;22.30;99.90;;;;;;5021331;28;20181;-82
2023/09/04 09:08:05;;;;;;;4.83;4.27;;;22.60;99.90;;;;;;5017071;28;20193;-82
2023/09/04 09:10:33;;;;;;;6.57;4.00;;;22.70;99.90;;;;;;5017373;28;20171;-82
2023/09/04 09:12:58;;;;;;;6.23;4.50;;;22.70;99.90;;;;;;5016829;28;20573;-81
2023/09/04 09:15:29;;;;;;;7.03;4.20;;;22.70;99.90;;;;;;5017133;28;20171;-81
2023/09/04 09:17:57;;;;;;;5.53;4.60;;;22.70;99.90;;;;;;5014989;28;20231;-81
2023/09/04 09:20:33;;;;;;;4.70;3.97;;;22.60;99.90;;;;;;5015227;28;20171;-81
2023/09/04 09:23:00;;;;;;;6.50;4.23;;;22.60;99.90;;;;;;5014855;28;20210;-83
2023/09/04 09:25:29;;;;;;;5.37;4.33;;;22.70;99.90;;;;;;5016349;28;20199;-80
2023/09/04 09:28:03;;;;;;;11.70;6.20;;;22.80;99.90;;;;;;5016310;28;20563;-82
2023/09/04 09:30:37;;;;;;;5.93;4.47;;;23.00;99.90;;;;;;5016767;28;20176;-82
2023/09/04 09:33:15;;;;;;;11.23;4.50;;;23.00;99.90;;;;;;5014741;28;20208;-81
2023/09/04 09:35:42;;;;;;;5.50;4.53;;;23.00;99.90;;;;;;5015336;28;20231;-80
2023/09/04 09:38:08;;;;;;;5.23;3.57;;;23.00;99.90;;;;;;5016222;28;20204;-81
2023/09/04 09:40:34;;;;;;;6.37;3.93;;;23.10;99.90;;;;;;5015891;28;20193;-81
2023/09/04 09:43:03;;;;;;;4.17;3.67;;;23.20;99.90;;;;;;5014415;28;20296;-81
2023/09/04 09:45:34;;;;;;;6.43;3.83;;;23.30;99.90;;;;;;5015544;28;20221;-81
2023/09/04 09:48:11;;;;;;;4.47;3.47;;;23.20;99.90;;;;;;5014394;28;20209;-82
2023/09/04 09:50:38;;;;;;;7.87;4.43;;;23.30;99.90;;;;;;5015461;28;20182;-82
2023/09/04 09:53:04;;;;;;;6.30;3.70;;;23.30;99.90;;;;;;5014373;28;20217;-81
2023/09/04 09:55:31;;;;;;;7.13;3.97;;;23.50;99.90;;;;;;5014636;28;20201;-81
2023/09/04 09:57:58;;;;;;;5.10;3.77;;;23.60;99.90;;;;;;5014529;28;20317;-81
2023/09/04 10:00:29;;;;;;;3.90;3.50;;;23.60;99.90;;;;;;5016600;28;20599;-81
2023/09/04 10:02:55;;;;;;;6.63;4.03;;;23.80;99.90;;;;;;5017162;28;20221;-81
2023/09/04 10:05:25;;;;;;;6.17;3.77;;;23.90;99.90;;;;;;5019423;28;20173;-81
2023/09/04 10:08:04;;;;;;;5.03;3.87;;;24.00;99.90;;;;;;5021859;28;20182;-82
2023/09/04 10:10:36;;;;;;;7.37;4.10;;;24.10;99.90;;;;;;5022628;28;20177;-81
2023/09/04 10:13:17;;;;;;;6.00;4.20;;;24.20;99.90;;;;;;5018775;28;20197;-80
2023/09/04 10:15:47;;;;;;;7.57;4.50;;;24.10;99.90;;;;;;5027392;28;20174;-81
2023/09/04 10:18:35;;;;;;;7.83;4.30;;;24.30;99.90;;;;;;5013996;28;20194;-81
2023/09/04 10:21:04;;;;;;;5.70;3.93;;;24.20;99.90;;;;;;5015058;28;20177;-81
2023/09/04 10:23:43;;;;;;;5.77;3.73;;;24.20;99.90;;;;;;5018989;28;20206;-82
2023/09/04 10:26:27;;;;;;;4.40;3.60;;;24.30;99.90;;;;;;5014795;28;20185;-82
2023/09/04 10:29:04;;;;;;;6.40;4.03;;;24.30;99.90;;;;;;5014647;28;20178;-83
2023/09/04 10:31:35;;;;;;;6.27;3.97;;;24.40;99.90;;;;;;5016335;28;20241;-84
2023/09/04 10:34:02;;;;;;;5.03;3.40;;;24.60;99.90;;;;;;5016457;28;20229;-82
2023/09/04 10:36:31;;;;;;;4.30;3.50;;;24.60;99.90;;;;;;5017241;28;20253;-81
2023/09/04 10:39:01;;;;;;;4.30;3.47;;;24.70;99.90;;;;;;5015546;28;20177;-82
2023/09/04 10:41:29;;;;;;;4.67;3.40;;;24.90;99.90;;;;;;5016109;28;20198;-82
2023/09/04 10:43:55;;;;;;;5.10;3.20;;;24.80;99.90;;;;;;5016126;28;20649;-82
2023/09/04 10:46:21;;;;;;;5.20;3.43;;;24.90;99.90;;;;;;5016020;28;20181;-83
2023/09/04 10:48:49;;;;;;;3.77;3.23;;;25.10;99.90;;;;;;4999389;28;20213;-83
2023/09/04 10:51:34;;;;;;;6.47;4.50;;;25.10;99.90;;;;;;5015826;28;20181;-83
2023/09/04 10:54:23;;;;;;;4.23;3.73;;;25.00;99.90;;;;;;5018127;28;20170;-83
2023/09/04 10:56:52;;;;;;;7.47;4.03;;;25.10;99.90;;;;;;5015255;28;20551;-83
2023/09/04 10:59:17;;;;;;;4.60;3.67;;;25.00;99.90;;;;;;5015746;28;20177;-82
2023/09/04 11:01:43;;;;;;;4.80;3.70;;;24.70;99.90;;;;;;5016667;28;20194;-81
2023/09/04 11:04:09;;;;;;;7.63;3.73;;;24.60;99.90;;;;;;5016097;28;20696;-82
2023/09/04 11:06:40;;;;;;;4.07;3.03;;;24.70;99.90;;;;;;5015422;28;20452;-82
2023/09/04 11:09:13;;;;;;;6.03;3.87;;;24.80;99.90;;;;;;5017555;28;20170;-83
2023/09/04 11:11:40;;;;;;;4.77;3.53;;;24.80;99.90;;;;;;5016082;28;20225;-82
2023/09/04 11:14:06;;;;;;;6.30;2.93;;;24.70;99.90;;;;;;5017731;28;20174;-82
2023/09/04 11:16:48;;;;;;;4.90;3.87;;;24.80;99.90;;;;;;5027467;28;20205;-81
2023/09/04 11:19:16;;;;;;;6.70;3.80;;;24.70;99.90;;;;;;5024377;28;20190;-81
2023/09/04 11:21:44;;;;;;;5.67;3.40;;;24.70;99.90;;;;;;5031908;28;20178;-81
2023/09/04 11:24:10;;;;;;;4.70;3.43;;;24.90;99.90;;;;;;5024349;28;20176;-81
2023/09/04 11:26:37;;;;;;;5.20;3.50;;;24.90;99.90;;;;;;5025483;28;20634;-79
2023/09/04 11:29:05;;;;;;;11.20;10.20;;;24.90;99.90;;;;;;5023491;28;20163;-82
2023/09/04 11:31:32;;;;;;;5.63;5.00;;;25.10;99.90;;;;;;5017016;28;20175;-82
2023/09/04 11:34:00;;;;;;;7.80;4.57;;;25.20;99.90;;;;;;5016468;28;20239;-82
2023/09/04 11:36:26;;;;;;;6.77;4.77;;;25.10;99.90;;;;;;5016452;28;20171;-83
2023/09/04 11:39:12;;;;;;;6.10;4.43;;;25.00;99.90;;;;;;5017971;28;20656;-82
2023/09/04 11:41:38;;;;;;;6.80;4.40;;;25.20;99.90;;;;;;5016560;28;20178;-83
2023/09/04 11:44:06;;;;;;;6.80;4.10;;;25.10;99.90;;;;;;5018456;28;20665;-82
2023/09/04 11:46:33;;;;;;;4.43;3.23;;;25.10;99.90;;;;;;5020461;28;20167;-83
2023/09/04 11:48:59;;;;;;;6.00;3.93;;;25.10;99.90;;;;;;5021412;28;20637;-83
2023/09/04 11:51:24;;;;;;;5.80;3.37;;;25.10;99.90;;;;;;5018328;28;20171;-83
2023/09/04 11:53:50;;;;;;;4.87;3.60;;;25.20;99.90;;;;;;5016176;28;20264;-82
2023/09/04 11:56:16;;;;;;;5.23;4.20;;;25.30;99.90;;;;;;5018160;28;20205;-84
2023/09/04 11:58:42;;;;;;;5.10;3.80;;;25.40;99.90;;;;;;5016557;28;20634;-83
2023/09/04 12:01:07;;;;;;;6.27;3.40;;;25.40;99.90;;;;;;5016315;28;20178;-82
2023/09/04 12:03:34;;;;;;;5.33;3.60;;;25.50;99.90;;;;;;5016025;28;20301;-83
2023/09/04 12:06:00;;;;;;;4.73;3.60;;;25.50;99.90;;;;;;5017956;28;20181;-83
2023/09/04 12:08:25;;;;;;;5.67;3.50;;;25.60;99.90;;;;;;5018397;28;20265;-82
2023/09/04 12:10:51;;;;;;;7.07;3.60;;;25.60;99.90;;;;;;5022055;28;20362;-82
2023/09/04 12:13:18;;;;;;;4.63;3.07;;;25.60;99.90;;;;;;5019060;28;20178;-82
2023/09/04 12:15:46;;;;;;;4.33;3.20;;;25.60;99.90;;;;;;5019472;28;20174;-83
2023/09/04 12:18:12;;;;;;;6.10;3.20;;;25.70;99.90;;;;;;5021148;28;20596;-82
2023/09/04 12:20:43;;;;;;;5.10;3.07;;;25.60;99.90;;;;;;5018565;28;20186;-81
2023/09/04 12:23:10;;;;;;;4.77;3.30;;;25.60;99.90;;;;;;5019337;28;20683;-83
2023/09/04 12:25:41;;;;;;;5.00;2.90;;;25.60;99.90;;;;;;5021834;28;20178;-83
2023/09/04 12:28:09;;;;;;;5.67;3.00;;;25.60;99.90;;;;;;5019252;28;20628;-78
2023/09/04 12:30:45;;;;;;;4.97;3.30;;;25.60;99.90;;;;;;5018253;28;20783;-81
2023/09/04 12:33:12;;;;;;;4.97;3.27;;;25.70;99.90;;;;;;5016829;28;20653;-81
2023/09/04 12:35:40;;;;;;;5.80;2.93;;;25.70;99.90;;;;;;5017335;28;20286;-81
2023/09/04 12:38:06;;;;;;;4.90;3.13;;;25.70;99.90;;;;;;5017173;28;20210;-80
2023/09/04 12:40:31;;;;;;;3.60;2.80;;;25.80;99.90;;;;;;5016548;28;20174;-83